Pink Hill, North Carolina
Current Conditions -  °F | °C
As of 7:15 AM on Monday 24 Nov 2014 (Local Time) from KDPL Reporting Station
Overcast Overcast  
Wind Chill: 66°   Ceiling: 6500
Heat Index: 66°   Visibility: 7mi
Dew Point: 65°   Wind: 0mph
Humidity: 96%   Direction: NA
Pressure: 29.85"   Gusts: NA
Location:  35.06°N, 77.75°W
Report Text: KDPL 241215Z AUTO 00000KT 7SM SCT008 OVC065 19/18 A2985 RMK AO2 T01870181
Loading
Personal Weather Stations






























Interactive Weather Map New forecast layout! Learn more

10-Day Weather Forecast

Advertisements
Track Severe Weather on mobile